• Join FlightAware (Why Join?)
  • Login
  • US Flag 
08:37AM EST


 

Airport Tracker/Info


-or-


 

Live Flight TrackerFlight Track Log ✈ FIN666 ✈ 02-Mar-2014 ✈ EKCH / CPH - EFHK / HEL

Flight Track Log - Related Links

Times and Time Zones

All times are in EST time to prevent confusion due to time zone crossing. See the FIN666 flight status page for this flight to view local times or setup timezone preferences in your user account.

Time Position Orientation Groundspeed Altitude Reporting Facility
EST Latitude Longitude Course Direction KTS MPH feet Rate Location/Type
07:24AM 55.8329 13.1000 49° Northeast  Level Estimated
07:25AM 55.9042 13.2491 50° Northeast  Level Estimated
07:26AM 55.9753 13.3988 50° Northeast  Level Estimated
07:27AM 56.0472 13.5511 50° Northeast  Level Estimated
07:28AM 56.1189 13.7039 50° Northeast  Level Estimated
07:29AM 56.1904 13.8574 50° Northeast  Level Estimated
07:30AM 56.2618 14.0114 50° Northeast  Level Estimated
07:31AM 56.3329 14.1660 50° Northeast  Level Estimated
07:32AM 56.4039 14.3211 50° Northeast  Level Estimated
07:33AM 56.4747 14.4768 51° Northeast  Level Estimated
07:34AM 56.5452 14.6332 51° Northeast  Level Estimated
07:35AM 56.6156 14.7901 51° Northeast  Level Estimated
07:36AM 56.6858 14.9475 51° Northeast  Level Estimated
07:37AM 56.7558 15.1056 51° Northeast  Level Estimated
07:38AM 56.8255 15.2643 51° Northeast  Level Estimated
07:39AM 56.8951 15.4235 51° Northeast  Level Estimated
07:40AM 56.9645 15.5834 51° Northeast  Level Estimated
07:41AM 57.0336 15.7438 52° Northeast  Level Estimated
07:42AM 57.1026 15.9049 52° Northeast  Level Estimated
07:43AM 57.1713 16.0665 52° Northeast  Level Estimated
07:44AM 57.2399 16.2288 52° Northeast  Level Estimated
07:45AM 57.3082 16.3916 52° Northeast  Level Estimated
07:46AM 57.3773 16.5574 52° Northeast  Level Estimated
07:47AM 57.4462 16.7237 52° Northeast  Level Estimated
07:48AM 57.5148 16.8907 53° Northeast  Level Estimated
07:49AM 57.5832 17.0584 53° Northeast  Level Estimated
07:50AM 57.6514 17.2266 53° Northeast  Level Estimated
07:51AM 57.7194 17.3955 53° Northeast  Level Estimated
07:52AM 57.7872 17.5651 53° Northeast  Level Estimated
07:53AM 57.8547 17.7352 53° Northeast  Level Estimated
07:54AM 57.9220 17.9060 53° Northeast  Level Estimated
07:55AM 57.9890 18.0775 54° Northeast  Level Estimated
07:56AM 58.0559 18.2496 54° Northeast  Level Estimated
07:57AM 58.1225 18.4223 54° Northeast  Level Estimated
07:58AM 58.1888 18.5957 54° Northeast  Level Estimated
07:59AM 58.2549 18.7697 54° Northeast  Level Estimated
08:00AM 58.3208 18.9444 54° Northeast  Level Estimated
08:01AM 58.3865 19.1197 54° Northeast  Level Estimated
08:02AM 58.4519 19.2957 55° Northeast  Level Estimated
08:03AM 58.5171 19.4723 55° Northeast  Level Estimated
08:04AM 58.5820 19.6496 55° Northeast  Level Estimated
08:05AM 58.6467 19.8276 55° Northeast  Level Estimated
08:06AM 58.7111 20.0062 55° Northeast  Level Estimated
08:07AM 58.7753 20.1855 55° Northeast  Level Estimated
08:08AM 58.8392 20.3654 55° Northeast  Level Estimated
08:09AM 58.9029 20.5460 56° Northeast  Level Estimated
08:10AM 58.9663 20.7272 56° Northeast  Level Estimated
08:11AM 59.0295 20.9092 56° Northeast  Level Estimated
08:12AM 59.0924 21.0918 56° Northeast  Level Estimated
08:13AM 59.1551 21.2750 56° Northeast  Level Estimated
08:14AM 59.2175 21.4590 56° Northeast  Level Estimated
08:15AM 59.2797 21.6436 57° Northeast  Level Estimated
08:16AM 59.3415 21.8289 57° Northeast  Level Estimated
08:17AM 59.4032 22.0148 57° Northeast  Level Estimated
08:18AM 59.4645 22.2015 57° Northeast  Level Estimated
08:19AM 59.5256 22.3888 57° Northeast  Level Estimated
08:20AM 59.5864 22.5768 57° Northeast  Level Estimated
08:21AM 59.6470 22.7654 58° Northeast  Level Estimated
08:22AM 59.7072 22.9548 58° Northeast  Level Estimated
08:23AM 59.7673 23.1448 58° Northeast  Level Estimated
08:24AM 59.8270 23.3355 58° Northeast  Level Estimated
08:25AM 59.8864 23.5269 58° Northeast  Level Estimated
08:26AM 59.9456 23.7190 58° Northeast  Level Estimated
08:27AM 60.0045 23.9118 59° Northeast  Level Estimated
08:28AM 60.0631 24.1052 59° Northeast  Level Estimated
08:29AM 60.1214 24.2994 59° Northeast  Level Estimated
08:30AM 60.1795 24.4942 59° Northeast  Level Estimated
08:31AM 60.2372 24.6897 59° Northeast  Level Estimated
08:32AM 60.2947 24.8859 59° Northeast  Level Estimated
08:33AM 60.3172 24.9633 60° Northeast  Level Estimated
08:34AM 60.3172 24.9633 North  Level Estimated
08:35AM 60.3172 24.9633 North  Level Estimated
08:36AM 60.3172 24.9633 North  Level Estimated
08:37AM 60.3172 24.9633 North  Level Estimated
08:38AM 60.3172 24.9633 North  Level Estimated
08:39AM 60.3172 24.9633 North  Level Estimated
08:40AM 60.3172 24.9633 North  Level Estimated
08:41AM 60.3172 24.9633 North  Level Estimated
08:42AM 60.3172 24.9633 North  Level Estimated
08:43AM 60.3172 24.9633 North  Level Estimated
08:44AM 60.3172 24.9633 North  Level Estimated
08:45AM 60.3172 24.9633 North  Level Estimated